Terminal Aerodrome Forecast
Issued by NWS

Home | Current Version | Previous Version | Text Only | Print | Product List | Glossary On
Versions: 1 2 3 4 5 6 7 8 9 10 11 12 13
000
FTUS45 KTFX 012300
TAFHLN
TAF
KHLN 012332Z 0200/0224 VRB06KT P6SM VCSH BKN070
     FM020300 25007KT 5SM -SN SCT030 OVC050
     FM021200 23005KT P6SM VCSH BKN040
     FM021800 27010KT P6SM SCT150=

USA.gov is the U.S. government's official web portal to all federal, state and local government web resources and services.